sensor_id;sensor_type;location;lat;lon;timestamp;P1;durP1;ratioP1;P2;durP2;ratioP2
46881;SDS011;44112;38.408;-122.974;2022-09-17T00:01:03;11.38;;;4.72;;
46881;SDS011;44112;38.408;-122.974;2022-09-17T00:03:31;10.50;;;5.40;;
46881;SDS011;44112;38.408;-122.974;2022-09-17T00:06:07;8.35;;;4.60;;
46881;SDS011;44112;38.408;-122.974;2022-09-17T00:08:38;10.68;;;5.07;;
46881;SDS011;44112;38.408;-122.974;2022-09-17T00:11:06;8.50;;;4.40;;
46881;SDS011;44112;38.408;-122.974;2022-09-17T00:13:38;8.30;;;4.75;;
46881;SDS011;44112;38.408;-122.974;2022-09-17T00:16:05;11.50;;;5.18;;
46881;SDS011;44112;38.408;-122.974;2022-09-17T00:18:32;8.82;;;4.97;;
46881;SDS011;44112;38.408;-122.974;2022-09-17T00:21:02;9.05;;;4.95;;
46881;SDS011;44112;38.408;-122.974;2022-09-17T00:23:29;9.25;;;5.00;;
46881;SDS011;44112;38.408;-122.974;2022-09-17T00:25:55;16.67;;;5.97;;
46881;SDS011;44112;38.408;-122.974;2022-09-17T00:28:23;10.40;;;4.97;;
46881;SDS011;44112;38.408;-122.974;2022-09-17T00:30:50;9.45;;;5.05;;
46881;SDS011;44112;38.408;-122.974;2022-09-17T00:33:16;9.73;;;4.97;;
46881;SDS011;44112;38.408;-122.974;2022-09-17T00:35:44;11.02;;;5.05;;
46881;SDS011;44112;38.408;-122.974;2022-09-17T00:38:21;10.73;;;5.18;;
46881;SDS011;44112;38.408;-122.974;2022-09-17T00:40:48;10.43;;;5.40;;
46881;SDS011;44112;38.408;-122.974;2022-09-17T00:43:30;8.95;;;4.82;;
46881;SDS011;44112;38.408;-122.974;2022-09-17T00:45:58;11.48;;;5.30;;
46881;SDS011;44112;38.408;-122.974;2022-09-17T00:48:25;10.13;;;4.63;;
46881;SDS011;44112;38.408;-122.974;2022-09-17T00:50:52;10.05;;;5.07;;
46881;SDS011;44112;38.408;-122.974;2022-09-17T00:53:20;13.25;;;5.55;;
46881;SDS011;44112;38.408;-122.974;2022-09-17T00:55:49;10.63;;;5.00;;
46881;SDS011;44112;38.408;-122.974;2022-09-17T00:58:23;12.40;;;5.22;;
46881;SDS011;44112;38.408;-122.974;2022-09-17T01:00:51;8.52;;;4.70;;
46881;SDS011;44112;38.408;-122.974;2022-09-17T01:03:18;11.95;;;5.05;;
46881;SDS011;44112;38.408;-122.974;2022-09-17T01:05:46;9.45;;;5.15;;
46881;SDS011;44112;38.408;-122.974;2022-09-17T01:22:00;8.93;;;5.15;;
46881;SDS011;44112;38.408;-122.974;2022-09-17T01:38:18;18.08;;;6.38;;
46881;SDS011;44112;38.408;-122.974;2022-09-17T01:43:48;18.30;;;5.78;;
46881;SDS011;44112;38.408;-122.974;2022-09-17T01:46:29;13.32;;;5.95;;
46881;SDS011;44112;38.408;-122.974;2022-09-17T01:51:47;12.80;;;5.35;;
46881;SDS011;44112;38.408;-122.974;2022-09-17T01:54:36;12.45;;;5.40;;
46881;SDS011;44112;38.408;-122.974;2022-09-17T01:57:26;15.88;;;5.82;;
46881;SDS011;44112;38.408;-122.974;2022-09-17T02:02:54;29.42;;;8.43;;
46881;SDS011;44112;38.408;-122.974;2022-09-17T02:08:21;21.17;;;7.60;;
46881;SDS011;44112;38.408;-122.974;2022-09-17T02:10:58;20.08;;;7.60;;
46881;SDS011;44112;38.408;-122.974;2022-09-17T02:14:16;22.10;;;7.22;;
46881;SDS011;44112;38.408;-122.974;2022-09-17T02:21:37;17.58;;;6.57;;
46881;SDS011;44112;38.408;-122.974;2022-09-17T02:26:49;16.58;;;6.47;;
46881;SDS011;44112;38.408;-122.974;2022-09-17T02:29:31;15.13;;;6.43;;
46881;SDS011;44112;38.408;-122.974;2022-09-17T02:32:08;21.08;;;6.45;;
46881;SDS011;44112;38.408;-122.974;2022-09-17T02:34:36;17.73;;;6.65;;
46881;SDS011;44112;38.408;-122.974;2022-09-17T02:37:04;16.15;;;7.15;;
46881;SDS011;44112;38.408;-122.974;2022-09-17T02:39:31;13.98;;;5.88;;
46881;SDS011;44112;38.408;-122.974;2022-09-17T02:47:38;16.33;;;6.07;;
46881;SDS011;44112;38.408;-122.974;2022-09-17T02:53:08;14.57;;;6.13;;
46881;SDS011;44112;38.408;-122.974;2022-09-17T02:58:32;13.85;;;5.82;;
46881;SDS011;44112;38.408;-122.974;2022-09-17T03:01:20;17.10;;;6.75;;
46881;SDS011;44112;38.408;-122.974;2022-09-17T03:04:00;15.93;;;6.30;;
46881;SDS011;44112;38.408;-122.974;2022-09-17T03:06:29;16.65;;;6.78;;
46881;SDS011;44112;38.408;-122.974;2022-09-17T03:08:56;18.50;;;6.28;;
46881;SDS011;44112;38.408;-122.974;2022-09-17T03:11:23;17.10;;;6.13;;
46881;SDS011;44112;38.408;-122.974;2022-09-17T03:13:50;12.27;;;5.93;;
46881;SDS011;44112;38.408;-122.974;2022-09-17T03:16:17;14.98;;;5.78;;
46881;SDS011;44112;38.408;-122.974;2022-09-17T03:18:44;14.02;;;6.22;;
46881;SDS011;44112;38.408;-122.974;2022-09-17T03:21:11;11.02;;;5.47;;
46881;SDS011;44112;38.408;-122.974;2022-09-17T03:23:38;11.48;;;5.97;;
46881;SDS011;44112;38.408;-122.974;2022-09-17T03:26:05;14.88;;;6.38;;
46881;SDS011;44112;38.408;-122.974;2022-09-17T03:28:31;10.75;;;5.40;;
46881;SDS011;44112;38.408;-122.974;2022-09-17T03:30:58;12.98;;;6.15;;
46881;SDS011;44112;38.408;-122.974;2022-09-17T03:33:25;15.68;;;5.72;;
46881;SDS011;44112;38.408;-122.974;2022-09-17T03:35:52;15.57;;;6.00;;
46881;SDS011;44112;38.408;-122.974;2022-09-17T03:38:19;15.68;;;5.47;;
46881;SDS011;44112;38.408;-122.974;2022-09-17T03:41:00;15.45;;;5.78;;
46881;SDS011;44112;38.408;-122.974;2022-09-17T03:43:29;12.63;;;6.32;;
46881;SDS011;44112;38.408;-122.974;2022-09-17T03:45:55;13.00;;;5.72;;
46881;SDS011;44112;38.408;-122.974;2022-09-17T03:48:22;11.60;;;5.53;;
46881;SDS011;44112;38.408;-122.974;2022-09-17T03:50:48;11.98;;;5.68;;
46881;SDS011;44112;38.408;-122.974;2022-09-17T03:53:15;10.50;;;5.80;;
46881;SDS011;44112;38.408;-122.974;2022-09-17T03:55:41;11.77;;;5.25;;
46881;SDS011;44112;38.408;-122.974;2022-09-17T03:58:08;12.25;;;5.82;;
46881;SDS011;44112;38.408;-122.974;2022-09-17T04:00:34;13.07;;;6.30;;
46881;SDS011;44112;38.408;-122.974;2022-09-17T04:03:04;10.68;;;5.35;;
46881;SDS011;44112;38.408;-122.974;2022-09-17T04:05:31;11.73;;;5.60;;
46881;SDS011;44112;38.408;-122.974;2022-09-17T04:07:58;11.18;;;5.22;;
46881;SDS011;44112;38.408;-122.974;2022-09-17T04:10:25;12.13;;;5.40;;
46881;SDS011;44112;38.408;-122.974;2022-09-17T04:12:53;14.23;;;5.60;;
46881;SDS011;44112;38.408;-122.974;2022-09-17T04:15:19;10.30;;;5.07;;
46881;SDS011;44112;38.408;-122.974;2022-09-17T04:17:46;11.00;;;5.70;;
46881;SDS011;44112;38.408;-122.974;2022-09-17T04:20:13;16.23;;;6.35;;
46881;SDS011;44112;38.408;-122.974;2022-09-17T04:22:39;16.17;;;5.95;;
46881;SDS011;44112;38.408;-122.974;2022-09-17T04:25:06;11.90;;;5.55;;
46881;SDS011;44112;38.408;-122.974;2022-09-17T04:27:33;14.95;;;5.47;;
46881;SDS011;44112;38.408;-122.974;2022-09-17T04:29:59;13.23;;;5.63;;
46881;SDS011;44112;38.408;-122.974;2022-09-17T04:32:25;13.15;;;5.13;;
46881;SDS011;44112;38.408;-122.974;2022-09-17T04:34:54;12.30;;;5.60;;
46881;SDS011;44112;38.408;-122.974;2022-09-17T04:37:20;13.57;;;5.15;;
46881;SDS011;44112;38.408;-122.974;2022-09-17T04:39:48;17.15;;;5.32;;
46881;SDS011;44112;38.408;-122.974;2022-09-17T04:42:15;16.67;;;6.10;;
46881;SDS011;44112;38.408;-122.974;2022-09-17T04:44:41;21.10;;;6.60;;
46881;SDS011;44112;38.408;-122.974;2022-09-17T04:47:08;20.20;;;6.55;;
46881;SDS011;44112;38.408;-122.974;2022-09-17T04:49:34;20.35;;;6.47;;
46881;SDS011;44112;38.408;-122.974;2022-09-17T04:52:01;23.58;;;6.20;;
46881;SDS011;44112;38.408;-122.974;2022-09-17T04:54:28;21.40;;;6.25;;
46881;SDS011;44112;38.408;-122.974;2022-09-17T04:56:54;16.88;;;6.30;;
46881;SDS011;44112;38.408;-122.974;2022-09-17T04:59:22;18.25;;;5.55;;
46881;SDS011;44112;38.408;-122.974;2022-09-17T05:01:49;16.45;;;5.68;;
46881;SDS011;44112;38.408;-122.974;2022-09-17T05:04:15;14.82;;;6.90;;
46881;SDS011;44112;38.408;-122.974;2022-09-17T05:06:42;18.67;;;5.25;;
46881;SDS011;44112;38.408;-122.974;2022-09-17T05:09:09;17.52;;;6.28;;
46881;SDS011;44112;38.408;-122.974;2022-09-17T05:11:36;16.50;;;6.00;;
46881;SDS011;44112;38.408;-122.974;2022-09-17T05:14:02;13.02;;;5.40;;
46881;SDS011;44112;38.408;-122.974;2022-09-17T05:16:29;14.52;;;5.35;;
46881;SDS011;44112;38.408;-122.974;2022-09-17T05:18:56;14.65;;;6.22;;
46881;SDS011;44112;38.408;-122.974;2022-09-17T05:21:22;15.25;;;6.00;;
46881;SDS011;44112;38.408;-122.974;2022-09-17T05:23:49;12.55;;;5.57;;
46881;SDS011;44112;38.408;-122.974;2022-09-17T05:26:16;12.73;;;4.90;;
46881;SDS011;44112;38.408;-122.974;2022-09-17T05:28:42;14.07;;;5.18;;
46881;SDS011;44112;38.408;-122.974;2022-09-17T05:31:09;14.05;;;5.40;;
46881;SDS011;44112;38.408;-122.974;2022-09-17T05:33:36;16.13;;;5.60;;
46881;SDS011;44112;38.408;-122.974;2022-09-17T05:36:02;14.95;;;5.60;;
46881;SDS011;44112;38.408;-122.974;2022-09-17T05:38:29;15.60;;;5.53;;
46881;SDS011;44112;38.408;-122.974;2022-09-17T05:40:55;15.38;;;5.82;;
46881;SDS011;44112;38.408;-122.974;2022-09-17T05:43:22;9.82;;;5.13;;
46881;SDS011;44112;38.408;-122.974;2022-09-17T05:45:49;11.73;;;5.50;;
46881;SDS011;44112;38.408;-122.974;2022-09-17T05:48:18;11.85;;;4.88;;
46881;SDS011;44112;38.408;-122.974;2022-09-17T05:50:44;14.38;;;5.18;;
46881;SDS011;44112;38.408;-122.974;2022-09-17T05:53:12;17.40;;;5.30;;
46881;SDS011;44112;38.408;-122.974;2022-09-17T05:55:39;12.57;;;5.57;;
46881;SDS011;44112;38.408;-122.974;2022-09-17T05:58:13;14.32;;;5.40;;
46881;SDS011;44112;38.408;-122.974;2022-09-17T06:00:41;15.45;;;5.68;;
46881;SDS011;44112;38.408;-122.974;2022-09-17T06:03:12;14.52;;;5.38;;
46881;SDS011;44112;38.408;-122.974;2022-09-17T06:05:41;13.82;;;5.50;;
46881;SDS011;44112;38.408;-122.974;2022-09-17T06:08:08;18.02;;;5.70;;
46881;SDS011;44112;38.408;-122.974;2022-09-17T06:10:35;12.75;;;5.35;;
46881;SDS011;44112;38.408;-122.974;2022-09-17T06:13:02;17.33;;;5.70;;
46881;SDS011;44112;38.408;-122.974;2022-09-17T06:15:29;13.35;;;5.18;;
46881;SDS011;44112;38.408;-122.974;2022-09-17T06:17:55;15.38;;;5.30;;
46881;SDS011;44112;38.408;-122.974;2022-09-17T06:20:22;11.98;;;4.95;;
46881;SDS011;44112;38.408;-122.974;2022-09-17T06:22:48;18.55;;;5.00;;
46881;SDS011;44112;38.408;-122.974;2022-09-17T06:25:20;10.23;;;5.05;;
46881;SDS011;44112;38.408;-122.974;2022-09-17T06:27:48;16.90;;;5.38;;
46881;SDS011;44112;38.408;-122.974;2022-09-17T06:30:15;14.70;;;5.03;;
46881;SDS011;44112;38.408;-122.974;2022-09-17T06:32:42;16.88;;;5.18;;
46881;SDS011;44112;38.408;-122.974;2022-09-17T06:35:08;11.75;;;4.95;;
46881;SDS011;44112;38.408;-122.974;2022-09-17T06:37:35;10.32;;;5.22;;
46881;SDS011;44112;38.408;-122.974;2022-09-17T06:40:04;12.55;;;4.93;;
46881;SDS011;44112;38.408;-122.974;2022-09-17T06:42:32;13.65;;;5.18;;
46881;SDS011;44112;38.408;-122.974;2022-09-17T06:44:58;11.88;;;5.07;;
46881;SDS011;44112;38.408;-122.974;2022-09-17T06:47:25;12.85;;;5.45;;
46881;SDS011;44112;38.408;-122.974;2022-09-17T06:49:52;10.70;;;4.53;;
46881;SDS011;44112;38.408;-122.974;2022-09-17T06:52:21;10.77;;;5.00;;
46881;SDS011;44112;38.408;-122.974;2022-09-17T06:54:47;9.10;;;4.75;;
46881;SDS011;44112;38.408;-122.974;2022-09-17T06:57:14;9.30;;;4.78;;
46881;SDS011;44112;38.408;-122.974;2022-09-17T06:59:41;10.07;;;4.65;;
46881;SDS011;44112;38.408;-122.974;2022-09-17T07:02:07;10.52;;;4.72;;
46881;SDS011;44112;38.408;-122.974;2022-09-17T07:04:34;9.13;;;4.70;;
46881;SDS011;44112;38.408;-122.974;2022-09-17T07:07:01;10.30;;;4.63;;
46881;SDS011;44112;38.408;-122.974;2022-09-17T07:09:29;9.23;;;4.30;;
46881;SDS011;44112;38.408;-122.974;2022-09-17T07:11:56;9.27;;;4.50;;
46881;SDS011;44112;38.408;-122.974;2022-09-17T07:14:24;8.63;;;4.72;;
46881;SDS011;44112;38.408;-122.974;2022-09-17T07:16:51;9.80;;;4.85;;
46881;SDS011;44112;38.408;-122.974;2022-09-17T07:19:17;10.25;;;4.97;;
46881;SDS011;44112;38.408;-122.974;2022-09-17T07:21:46;10.05;;;4.60;;
46881;SDS011;44112;38.408;-122.974;2022-09-17T07:24:13;10.15;;;5.15;;
46881;SDS011;44112;38.408;-122.974;2022-09-17T07:26:40;9.68;;;4.55;;
46881;SDS011;44112;38.408;-122.974;2022-09-17T07:29:07;9.55;;;4.65;;
46881;SDS011;44112;38.408;-122.974;2022-09-17T07:31:34;10.43;;;4.90;;
46881;SDS011;44112;38.408;-122.974;2022-09-17T07:34:01;8.65;;;4.63;;
46881;SDS011;44112;38.408;-122.974;2022-09-17T07:36:27;9.57;;;4.88;;
46881;SDS011;44112;38.408;-122.974;2022-09-17T07:38:55;10.35;;;4.45;;
46881;SDS011;44112;38.408;-122.974;2022-09-17T07:41:22;10.07;;;5.03;;
46881;SDS011;44112;38.408;-122.974;2022-09-17T07:43:51;7.85;;;4.63;;
46881;SDS011;44112;38.408;-122.974;2022-09-17T07:46:21;9.70;;;4.57;;
46881;SDS011;44112;38.408;-122.974;2022-09-17T07:48:48;7.88;;;4.57;;
46881;SDS011;44112;38.408;-122.974;2022-09-17T07:51:16;9.68;;;5.03;;
46881;SDS011;44112;38.408;-122.974;2022-09-17T07:53:52;9.35;;;4.57;;
46881;SDS011;44112;38.408;-122.974;2022-09-17T07:56:19;10.05;;;4.63;;
46881;SDS011;44112;38.408;-122.974;2022-09-17T07:58:47;8.15;;;4.60;;
46881;SDS011;44112;38.408;-122.974;2022-09-17T08:01:14;9.25;;;4.63;;
46881;SDS011;44112;38.408;-122.974;2022-09-17T08:03:42;10.60;;;4.50;;
46881;SDS011;44112;38.408;-122.974;2022-09-17T08:06:15;8.75;;;4.60;;
46881;SDS011;44112;38.408;-122.974;2022-09-17T08:08:43;7.28;;;4.30;;
46881;SDS011;44112;38.408;-122.974;2022-09-17T08:11:15;8.77;;;4.43;;
46881;SDS011;44112;38.408;-122.974;2022-09-17T08:13:48;7.47;;;4.28;;
46881;SDS011;44112;38.408;-122.974;2022-09-17T08:16:16;7.60;;;4.60;;
46881;SDS011;44112;38.408;-122.974;2022-09-17T08:18:43;8.80;;;4.53;;
46881;SDS011;44112;38.408;-122.974;2022-09-17T08:21:11;7.22;;;4.22;;
46881;SDS011;44112;38.408;-122.974;2022-09-17T08:23:41;7.50;;;4.35;;
46881;SDS011;44112;38.408;-122.974;2022-09-17T08:26:15;7.32;;;4.57;;
46881;SDS011;44112;38.408;-122.974;2022-09-17T08:28:46;8.45;;;4.53;;
46881;SDS011;44112;38.408;-122.974;2022-09-17T08:31:16;7.93;;;4.85;;
46881;SDS011;44112;38.408;-122.974;2022-09-17T08:33:44;8.35;;;4.78;;
46881;SDS011;44112;38.408;-122.974;2022-09-17T08:36:12;8.82;;;4.57;;
46881;SDS011;44112;38.408;-122.974;2022-09-17T08:38:39;7.68;;;4.43;;
46881;SDS011;44112;38.408;-122.974;2022-09-17T08:43:39;8.95;;;4.53;;
46881;SDS011;44112;38.408;-122.974;2022-09-17T08:46:10;7.55;;;4.45;;
46881;SDS011;44112;38.408;-122.974;2022-09-17T08:48:55;8.52;;;4.90;;
46881;SDS011;44112;38.408;-122.974;2022-09-17T08:54:19;7.53;;;4.40;;
46881;SDS011;44112;38.408;-122.974;2022-09-17T08:56:54;8.57;;;4.47;;
46881;SDS011;44112;38.408;-122.974;2022-09-17T09:05:23;7.72;;;4.25;;
46881;SDS011;44112;38.408;-122.974;2022-09-17T09:08:10;7.68;;;4.50;;
46881;SDS011;44112;38.408;-122.974;2022-09-17T09:11:01;6.93;;;4.20;;
46881;SDS011;44112;38.408;-122.974;2022-09-17T09:13:33;8.88;;;5.20;;
46881;SDS011;44112;38.408;-122.974;2022-09-17T09:16:05;8.50;;;4.57;;
46881;SDS011;44112;38.408;-122.974;2022-09-17T09:18:41;10.02;;;5.00;;
46881;SDS011;44112;38.408;-122.974;2022-09-17T09:21:19;11.15;;;4.70;;
46881;SDS011;44112;38.408;-122.974;2022-09-17T09:26:43;11.90;;;5.03;;
46881;SDS011;44112;38.408;-122.974;2022-09-17T09:31:56;8.82;;;4.60;;
46881;SDS011;44112;38.408;-122.974;2022-09-17T09:34:26;10.07;;;4.72;;
46881;SDS011;44112;38.408;-122.974;2022-09-17T09:36:57;7.68;;;4.43;;
46881;SDS011;44112;38.408;-122.974;2022-09-17T09:40:17;9.05;;;4.13;;
46881;SDS011;44112;38.408;-122.974;2022-09-17T09:43:11;11.57;;;4.50;;
46881;SDS011;44112;38.408;-122.974;2022-09-17T09:59:12;8.25;;;4.60;;
46881;SDS011;44112;38.408;-122.974;2022-09-17T10:01:40;9.63;;;4.55;;
46881;SDS011;44112;38.408;-122.974;2022-09-17T10:04:27;8.40;;;4.40;;
46881;SDS011;44112;38.408;-122.974;2022-09-17T10:07:03;8.10;;;4.25;;
46881;SDS011;44112;38.408;-122.974;2022-09-17T10:09:31;8.50;;;4.60;;
46881;SDS011;44112;38.408;-122.974;2022-09-17T10:12:19;7.85;;;4.50;;
46881;SDS011;44112;38.408;-122.974;2022-09-17T10:14:46;9.00;;;4.53;;
46881;SDS011;44112;38.408;-122.974;2022-09-17T10:17:14;9.02;;;4.60;;
46881;SDS011;44112;38.408;-122.974;2022-09-17T10:22:28;9.18;;;5.07;;
46881;SDS011;44112;38.408;-122.974;2022-09-17T10:24:56;7.78;;;4.47;;
46881;SDS011;44112;38.408;-122.974;2022-09-17T10:27:24;10.77;;;4.95;;
46881;SDS011;44112;38.408;-122.974;2022-09-17T10:29:56;9.85;;;4.70;;
46881;SDS011;44112;38.408;-122.974;2022-09-17T10:32:44;7.20;;;4.50;;
46881;SDS011;44112;38.408;-122.974;2022-09-17T10:35:35;9.18;;;4.50;;
46881;SDS011;44112;38.408;-122.974;2022-09-17T10:38:02;8.57;;;4.57;;
46881;SDS011;44112;38.408;-122.974;2022-09-17T10:40:30;8.88;;;4.43;;
46881;SDS011;44112;38.408;-122.974;2022-09-17T10:45:55;9.90;;;4.57;;
46881;SDS011;44112;38.408;-122.974;2022-09-17T10:48:25;9.65;;;4.80;;
46881;SDS011;44112;38.408;-122.974;2022-09-17T10:50:56;8.73;;;4.70;;
46881;SDS011;44112;38.408;-122.974;2022-09-17T10:53:27;8.82;;;4.68;;
46881;SDS011;44112;38.408;-122.974;2022-09-17T10:58:43;7.18;;;4.00;;
46881;SDS011;44112;38.408;-122.974;2022-09-17T11:04:20;17.17;;;4.67;;
46881;SDS011;44112;38.408;-122.974;2022-09-17T11:10:15;8.43;;;4.75;;
46881;SDS011;44112;38.408;-122.974;2022-09-17T11:39:42;7.80;;;4.40;;
46881;SDS011;44112;38.408;-122.974;2022-09-17T11:42:12;7.63;;;4.37;;
46881;SDS011;44112;38.408;-122.974;2022-09-17T11:47:23;6.90;;;4.20;;
46881;SDS011;44112;38.408;-122.974;2022-09-17T11:55:29;7.28;;;4.25;;
46881;SDS011;44112;38.408;-122.974;2022-09-17T12:01:39;7.25;;;3.83;;
46881;SDS011;44112;38.408;-122.974;2022-09-17T12:04:21;8.93;;;4.10;;
46881;SDS011;44112;38.408;-122.974;2022-09-17T12:10:08;8.40;;;4.15;;
46881;SDS011;44112;38.408;-122.974;2022-09-17T12:12:48;6.57;;;3.83;;
46881;SDS011;44112;38.408;-122.974;2022-09-17T12:15:24;7.53;;;4.38;;
46881;SDS011;44112;38.408;-122.974;2022-09-17T12:18:27;9.65;;;4.40;;
46881;SDS011;44112;38.408;-122.974;2022-09-17T12:20:47;8.05;;;4.32;;
46881;SDS011;44112;38.408;-122.974;2022-09-17T12:23:26;6.88;;;4.07;;
46881;SDS011;44112;38.408;-122.974;2022-09-17T12:26:14;8.48;;;4.50;;
46881;SDS011;44112;38.408;-122.974;2022-09-17T12:40:11;7.65;;;3.92;;
46881;SDS011;44112;38.408;-122.974;2022-09-17T12:50:50;8.13;;;4.40;;
46881;SDS011;44112;38.408;-122.974;2022-09-17T12:53:48;6.90;;;3.92;;
46881;SDS011;44112;38.408;-122.974;2022-09-17T12:59:20;6.57;;;3.65;;
46881;SDS011;44112;38.408;-122.974;2022-09-17T13:07:32;6.65;;;3.90;;
46881;SDS011;44112;38.408;-122.974;2022-09-17T13:13:42;7.10;;;3.80;;
46881;SDS011;44112;38.408;-122.974;2022-09-17T13:18:24;7.07;;;4.00;;
46881;SDS011;44112;38.408;-122.974;2022-09-17T13:21:12;7.47;;;4.32;;
46881;SDS011;44112;38.408;-122.974;2022-09-17T13:23:54;6.93;;;4.00;;
46881;SDS011;44112;38.408;-122.974;2022-09-17T13:26:31;7.60;;;4.00;;
46881;SDS011;44112;38.408;-122.974;2022-09-17T13:29:04;7.20;;;4.40;;
46881;SDS011;44112;38.408;-122.974;2022-09-17T13:34:01;7.25;;;4.10;;
46881;SDS011;44112;38.408;-122.974;2022-09-17T13:45:02;8.05;;;4.10;;
46881;SDS011;44112;38.408;-122.974;2022-09-17T13:47:38;7.28;;;4.10;;
46881;SDS011;44112;38.408;-122.974;2022-09-17T13:50:25;7.75;;;4.43;;
46881;SDS011;44112;38.408;-122.974;2022-09-17T14:05:55;7.18;;;4.00;;
46881;SDS011;44112;38.408;-122.974;2022-09-17T14:11:42;6.70;;;3.80;;
46881;SDS011;44112;38.408;-122.974;2022-09-17T14:21:57;6.63;;;3.78;;
46881;SDS011;44112;38.408;-122.974;2022-09-17T14:24:31;7.22;;;4.05;;
46881;SDS011;44112;38.408;-122.974;2022-09-17T14:29:54;7.07;;;4.10;;
46881;SDS011;44112;38.408;-122.974;2022-09-17T14:32:43;7.32;;;4.03;;
46881;SDS011;44112;38.408;-122.974;2022-09-17T14:40:44;7.03;;;4.43;;
46881;SDS011;44112;38.408;-122.974;2022-09-17T14:43:46;7.32;;;4.20;;
46881;SDS011;44112;38.408;-122.974;2022-09-17T14:46:24;7.35;;;3.97;;
46881;SDS011;44112;38.408;-122.974;2022-09-17T14:49:17;7.35;;;3.97;;
46881;SDS011;44112;38.408;-122.974;2022-09-17T14:51:47;6.20;;;3.60;;
46881;SDS011;44112;38.408;-122.974;2022-09-17T14:54:33;6.53;;;3.95;;
46881;SDS011;44112;38.408;-122.974;2022-09-17T14:57:11;6.55;;;4.10;;
46881;SDS011;44112;38.408;-122.974;2022-09-17T14:59:55;7.72;;;4.13;;
46881;SDS011;44112;38.408;-122.974;2022-09-17T15:05:18;7.25;;;4.20;;
46881;SDS011;44112;38.408;-122.974;2022-09-17T15:08:14;6.82;;;3.58;;
46881;SDS011;44112;38.408;-122.974;2022-09-17T15:10:45;7.13;;;3.72;;
46881;SDS011;44112;38.408;-122.974;2022-09-17T15:13:34;5.78;;;3.55;;
46881;SDS011;44112;38.408;-122.974;2022-09-17T15:16:21;6.00;;;3.65;;
46881;SDS011;44112;38.408;-122.974;2022-09-17T15:18:53;6.72;;;3.80;;
46881;SDS011;44112;38.408;-122.974;2022-09-17T15:21:41;6.80;;;3.95;;
46881;SDS011;44112;38.408;-122.974;2022-09-17T15:26:54;7.57;;;3.95;;
46881;SDS011;44112;38.408;-122.974;2022-09-17T15:29:25;6.78;;;3.75;;
46881;SDS011;44112;38.408;-122.974;2022-09-17T15:31:55;6.55;;;4.22;;
46881;SDS011;44112;38.408;-122.974;2022-09-17T15:34:22;7.15;;;3.92;;
46881;SDS011;44112;38.408;-122.974;2022-09-17T15:37:04;6.93;;;4.00;;
46881;SDS011;44112;38.408;-122.974;2022-09-17T15:39:42;8.65;;;4.15;;
46881;SDS011;44112;38.408;-122.974;2022-09-17T15:42:22;7.13;;;4.30;;
46881;SDS011;44112;38.408;-122.974;2022-09-17T15:45:14;6.40;;;4.00;;
46881;SDS011;44112;38.408;-122.974;2022-09-17T15:50:19;7.38;;;4.05;;
46881;SDS011;44112;38.408;-122.974;2022-09-17T15:52:50;7.32;;;3.80;;
46881;SDS011;44112;38.408;-122.974;2022-09-17T15:55:45;8.38;;;3.90;;
46881;SDS011;44112;38.408;-122.974;2022-09-17T16:01:48;12.82;;;4.32;;
46881;SDS011;44112;38.408;-122.974;2022-09-17T16:11:14;9.00;;;4.20;;
46881;SDS011;44112;38.408;-122.974;2022-09-17T16:13:41;10.02;;;4.20;;
46881;SDS011;44112;38.408;-122.974;2022-09-17T16:16:17;10.80;;;4.20;;
46881;SDS011;44112;38.408;-122.974;2022-09-17T16:18:44;8.95;;;4.10;;
46881;SDS011;44112;38.408;-122.974;2022-09-17T16:21:14;8.40;;;4.00;;
46881;SDS011;44112;38.408;-122.974;2022-09-17T16:23:42;9.68;;;4.28;;
46881;SDS011;44112;38.408;-122.974;2022-09-17T16:26:19;8.73;;;4.30;;
46881;SDS011;44112;38.408;-122.974;2022-09-17T16:28:49;10.40;;;4.30;;
46881;SDS011;44112;38.408;-122.974;2022-09-17T16:31:18;8.77;;;4.43;;
46881;SDS011;44112;38.408;-122.974;2022-09-17T16:33:46;8.52;;;3.95;;
46881;SDS011;44112;38.408;-122.974;2022-09-17T16:36:14;10.65;;;4.20;;
46881;SDS011;44112;38.408;-122.974;2022-09-17T16:38:42;7.88;;;4.07;;
46881;SDS011;44112;38.408;-122.974;2022-09-17T16:41:11;9.60;;;3.83;;
46881;SDS011;44112;38.408;-122.974;2022-09-17T16:43:38;10.63;;;3.85;;
46881;SDS011;44112;38.408;-122.974;2022-09-17T16:46:05;7.25;;;4.10;;
46881;SDS011;44112;38.408;-122.974;2022-09-17T16:48:34;9.55;;;4.13;;
46881;SDS011;44112;38.408;-122.974;2022-09-17T16:51:05;9.25;;;4.13;;
46881;SDS011;44112;38.408;-122.974;2022-09-17T16:53:33;7.25;;;3.95;;
46881;SDS011;44112;38.408;-122.974;2022-09-17T16:56:05;8.32;;;4.13;;
46881;SDS011;44112;38.408;-122.974;2022-09-17T16:58:33;10.48;;;4.32;;
46881;SDS011;44112;38.408;-122.974;2022-09-17T17:01:09;8.40;;;4.00;;
46881;SDS011;44112;38.408;-122.974;2022-09-17T17:03:37;8.10;;;3.70;;
46881;SDS011;44112;38.408;-122.974;2022-09-17T17:06:04;7.10;;;3.60;;
46881;SDS011;44112;38.408;-122.974;2022-09-17T17:08:31;8.05;;;3.90;;
46881;SDS011;44112;38.408;-122.974;2022-09-17T17:10:59;8.70;;;3.95;;
46881;SDS011;44112;38.408;-122.974;2022-09-17T17:13:26;8.45;;;4.10;;
46881;SDS011;44112;38.408;-122.974;2022-09-17T17:15:53;7.32;;;3.92;;
46881;SDS011;44112;38.408;-122.974;2022-09-17T17:18:20;5.97;;;3.33;;
46881;SDS011;44112;38.408;-122.974;2022-09-17T17:20:46;8.60;;;4.00;;
46881;SDS011;44112;38.408;-122.974;2022-09-17T17:23:13;7.78;;;3.53;;
46881;SDS011;44112;38.408;-122.974;2022-09-17T17:25:40;7.18;;;3.80;;
46881;SDS011;44112;38.408;-122.974;2022-09-17T17:28:07;9.27;;;3.78;;
46881;SDS011;44112;38.408;-122.974;2022-09-17T17:30:35;7.60;;;3.65;;
46881;SDS011;44112;38.408;-122.974;2022-09-17T17:33:02;7.90;;;3.60;;
46881;SDS011;44112;38.408;-122.974;2022-09-17T17:35:29;6.97;;;3.65;;
46881;SDS011;44112;38.408;-122.974;2022-09-17T17:37:55;8.75;;;4.25;;
46881;SDS011;44112;38.408;-122.974;2022-09-17T17:40:23;9.05;;;3.50;;
46881;SDS011;44112;38.408;-122.974;2022-09-17T17:42:50;7.10;;;3.63;;
46881;SDS011;44112;38.408;-122.974;2022-09-17T17:45:17;7.53;;;3.75;;
46881;SDS011;44112;38.408;-122.974;2022-09-17T17:47:44;8.80;;;3.97;;
46881;SDS011;44112;38.408;-122.974;2022-09-17T17:50:11;6.95;;;3.72;;
46881;SDS011;44112;38.408;-122.974;2022-09-17T17:52:40;6.85;;;3.60;;
46881;SDS011;44112;38.408;-122.974;2022-09-17T17:55:12;7.70;;;3.70;;
46881;SDS011;44112;38.408;-122.974;2022-09-17T17:57:39;6.93;;;3.42;;
46881;SDS011;44112;38.408;-122.974;2022-09-17T18:00:06;6.75;;;3.75;;
46881;SDS011;44112;38.408;-122.974;2022-09-17T18:02:36;8.55;;;3.50;;
46881;SDS011;44112;38.408;-122.974;2022-09-17T18:05:02;7.82;;;3.88;;
46881;SDS011;44112;38.408;-122.974;2022-09-17T18:07:29;6.85;;;3.70;;
46881;SDS011;44112;38.408;-122.974;2022-09-17T18:09:56;7.28;;;3.55;;
46881;SDS011;44112;38.408;-122.974;2022-09-17T18:12:22;6.35;;;3.55;;
46881;SDS011;44112;38.408;-122.974;2022-09-17T18:14:50;6.85;;;3.10;;
46881;SDS011;44112;38.408;-122.974;2022-09-17T18:17:16;6.65;;;3.67;;
46881;SDS011;44112;38.408;-122.974;2022-09-17T18:19:44;6.68;;;3.22;;
46881;SDS011;44112;38.408;-122.974;2022-09-17T18:22:11;6.68;;;3.47;;
46881;SDS011;44112;38.408;-122.974;2022-09-17T18:24:38;7.68;;;3.78;;
46881;SDS011;44112;38.408;-122.974;2022-09-17T18:27:04;10.95;;;3.90;;